sensor_id;sensor_type;location;lat;lon;timestamp;P1;durP1;ratioP1;P2;durP2;ratioP2
34673;SDS011;20879;55.668;37.858;2022-12-13T00:02:09;5.03;;;2.50;;
34673;SDS011;20879;55.668;37.858;2022-12-13T00:04:39;2.55;;;2.30;;
34673;SDS011;20879;55.668;37.858;2022-12-13T00:07:11;2.78;;;2.47;;
34673;SDS011;20879;55.668;37.858;2022-12-13T00:09:41;2.35;;;2.15;;
34673;SDS011;20879;55.668;37.858;2022-12-13T00:12:10;3.53;;;2.60;;
34673;SDS011;20879;55.668;37.858;2022-12-13T00:17:19;2.75;;;2.33;;
34673;SDS011;20879;55.668;37.858;2022-12-13T00:19:49;2.50;;;2.30;;
34673;SDS011;20879;55.668;37.858;2022-12-13T00:22:20;2.17;;;1.98;;
34673;SDS011;20879;55.668;37.858;2022-12-13T00:24:49;2.42;;;2.22;;
34673;SDS011;20879;55.668;37.858;2022-12-13T00:27:21;2.28;;;1.92;;
34673;SDS011;20879;55.668;37.858;2022-12-13T00:29:50;2.60;;;2.10;;
34673;SDS011;20879;55.668;37.858;2022-12-13T00:32:19;2.50;;;2.17;;
34673;SDS011;20879;55.668;37.858;2022-12-13T00:34:58;2.28;;;2.08;;
34673;SDS011;20879;55.668;37.858;2022-12-13T00:37:30;2.45;;;2.22;;
34673;SDS011;20879;55.668;37.858;2022-12-13T00:39:59;2.85;;;2.45;;
34673;SDS011;20879;55.668;37.858;2022-12-13T00:42:29;2.30;;;2.10;;
34673;SDS011;20879;55.668;37.858;2022-12-13T00:44:58;2.58;;;2.35;;
34673;SDS011;20879;55.668;37.858;2022-12-13T00:47:32;3.00;;;2.30;;
34673;SDS011;20879;55.668;37.858;2022-12-13T00:50:02;3.75;;;2.20;;
34673;SDS011;20879;55.668;37.858;2022-12-13T00:52:39;3.30;;;2.13;;
34673;SDS011;20879;55.668;37.858;2022-12-13T00:55:14;1.65;;;1.55;;
34673;SDS011;20879;55.668;37.858;2022-12-13T00:57:48;2.80;;;2.50;;
34673;SDS011;20879;55.668;37.858;2022-12-13T01:00:20;2.53;;;2.28;;
34673;SDS011;20879;55.668;37.858;2022-12-13T01:02:51;2.50;;;2.30;;
34673;SDS011;20879;55.668;37.858;2022-12-13T01:05:21;3.00;;;2.70;;
34673;SDS011;20879;55.668;37.858;2022-12-13T01:08:17;2.55;;;2.35;;
34673;SDS011;20879;55.668;37.858;2022-12-13T01:10:51;4.32;;;2.13;;
34673;SDS011;20879;55.668;37.858;2022-12-13T01:13:27;2.35;;;2.15;;
34673;SDS011;20879;55.668;37.858;2022-12-13T01:15:57;2.78;;;2.45;;
34673;SDS011;20879;55.668;37.858;2022-12-13T01:18:26;2.53;;;2.33;;
34673;SDS011;20879;55.668;37.858;2022-12-13T01:20:56;2.40;;;2.20;;
34673;SDS011;20879;55.668;37.858;2022-12-13T01:23:28;2.83;;;2.40;;
34673;SDS011;20879;55.668;37.858;2022-12-13T01:25:58;4.25;;;2.70;;
34673;SDS011;20879;55.668;37.858;2022-12-13T01:28:35;3.00;;;2.55;;
34673;SDS011;20879;55.668;37.858;2022-12-13T01:31:06;3.35;;;2.63;;
34673;SDS011;20879;55.668;37.858;2022-12-13T01:33:48;2.55;;;2.35;;
34673;SDS011;20879;55.668;37.858;2022-12-13T01:36:18;2.97;;;2.67;;
34673;SDS011;20879;55.668;37.858;2022-12-13T01:38:56;3.33;;;2.60;;
34673;SDS011;20879;55.668;37.858;2022-12-13T01:41:31;3.00;;;2.38;;
34673;SDS011;20879;55.668;37.858;2022-12-13T01:44:02;3.33;;;2.80;;
34673;SDS011;20879;55.668;37.858;2022-12-13T01:46:32;2.38;;;2.17;;
34673;SDS011;20879;55.668;37.858;2022-12-13T01:49:03;4.03;;;2.53;;
34673;SDS011;20879;55.668;37.858;2022-12-13T01:51:46;2.80;;;2.47;;
34673;SDS011;20879;55.668;37.858;2022-12-13T01:57:00;2.88;;;2.58;;
34673;SDS011;20879;55.668;37.858;2022-12-13T01:59:40;2.88;;;2.47;;
34673;SDS011;20879;55.668;37.858;2022-12-13T02:02:16;2.78;;;2.50;;
34673;SDS011;20879;55.668;37.858;2022-12-13T02:04:47;3.00;;;2.63;;
34673;SDS011;20879;55.668;37.858;2022-12-13T02:07:22;2.58;;;2.28;;
34673;SDS011;20879;55.668;37.858;2022-12-13T02:09:59;3.25;;;2.58;;
34673;SDS011;20879;55.668;37.858;2022-12-13T02:12:35;3.08;;;2.78;;
34673;SDS011;20879;55.668;37.858;2022-12-13T02:15:13;2.47;;;2.25;;
34673;SDS011;20879;55.668;37.858;2022-12-13T02:17:50;2.90;;;2.15;;
34673;SDS011;20879;55.668;37.858;2022-12-13T02:20:41;3.60;;;2.83;;
34673;SDS011;20879;55.668;37.858;2022-12-13T02:29:24;3.70;;;2.38;;
34673;SDS011;20879;55.668;37.858;2022-12-13T02:32:17;2.65;;;2.38;;
34673;SDS011;20879;55.668;37.858;2022-12-13T02:34:55;2.50;;;2.30;;
34673;SDS011;20879;55.668;37.858;2022-12-13T02:37:31;2.58;;;2.38;;
34673;SDS011;20879;55.668;37.858;2022-12-13T02:40:10;3.50;;;2.70;;
34673;SDS011;20879;55.668;37.858;2022-12-13T02:42:55;2.70;;;2.50;;
34673;SDS011;20879;55.668;37.858;2022-12-13T02:45:33;2.95;;;2.25;;
34673;SDS011;20879;55.668;37.858;2022-12-13T02:48:09;3.20;;;2.90;;
34673;SDS011;20879;55.668;37.858;2022-12-13T02:50:41;2.85;;;2.45;;
34673;SDS011;20879;55.668;37.858;2022-12-13T02:53:18;4.38;;;2.45;;
34673;SDS011;20879;55.668;37.858;2022-12-13T02:55:55;2.47;;;2.28;;
34673;SDS011;20879;55.668;37.858;2022-12-13T02:58:26;3.00;;;2.33;;
34673;SDS011;20879;55.668;37.858;2022-12-13T03:01:10;4.10;;;3.05;;
34673;SDS011;20879;55.668;37.858;2022-12-13T03:03:59;4.18;;;2.80;;
34673;SDS011;20879;55.668;37.858;2022-12-13T03:06:42;4.35;;;3.05;;
34673;SDS011;20879;55.668;37.858;2022-12-13T03:09:28;4.63;;;3.30;;
34673;SDS011;20879;55.668;37.858;2022-12-13T03:12:15;3.70;;;3.05;;
34673;SDS011;20879;55.668;37.858;2022-12-13T03:15:09;4.85;;;2.88;;
34673;SDS011;20879;55.668;37.858;2022-12-13T03:17:52;4.57;;;3.22;;
34673;SDS011;20879;55.668;37.858;2022-12-13T03:20:33;5.80;;;3.25;;
34673;SDS011;20879;55.668;37.858;2022-12-13T03:23:03;4.45;;;3.55;;
34673;SDS011;20879;55.668;37.858;2022-12-13T03:25:32;5.55;;;3.55;;
34673;SDS011;20879;55.668;37.858;2022-12-13T03:30:37;7.97;;;3.80;;
34673;SDS011;20879;55.668;37.858;2022-12-13T03:33:07;6.60;;;3.08;;
34673;SDS011;20879;55.668;37.858;2022-12-13T03:35:38;4.65;;;3.42;;
34673;SDS011;20879;55.668;37.858;2022-12-13T03:38:10;4.25;;;3.42;;
34673;SDS011;20879;55.668;37.858;2022-12-13T03:40:49;3.90;;;3.50;;
34673;SDS011;20879;55.668;37.858;2022-12-13T03:43:21;3.90;;;3.50;;
34673;SDS011;20879;55.668;37.858;2022-12-13T03:45:51;4.57;;;3.50;;
34673;SDS011;20879;55.668;37.858;2022-12-13T03:50:58;4.53;;;3.92;;
34673;SDS011;20879;55.668;37.858;2022-12-13T03:53:34;5.10;;;3.90;;
34673;SDS011;20879;55.668;37.858;2022-12-13T03:56:14;4.35;;;3.60;;
34673;SDS011;20879;55.668;37.858;2022-12-13T03:58:43;5.55;;;3.88;;
34673;SDS011;20879;55.668;37.858;2022-12-13T04:01:13;4.85;;;3.72;;
34673;SDS011;20879;55.668;37.858;2022-12-13T04:03:49;4.40;;;3.70;;
34673;SDS011;20879;55.668;37.858;2022-12-13T04:06:26;5.00;;;4.07;;
34673;SDS011;20879;55.668;37.858;2022-12-13T04:08:59;5.82;;;3.75;;
34673;SDS011;20879;55.668;37.858;2022-12-13T04:11:28;4.60;;;3.83;;
34673;SDS011;20879;55.668;37.858;2022-12-13T04:14:10;4.40;;;3.35;;
34673;SDS011;20879;55.668;37.858;2022-12-13T04:16:48;4.95;;;3.72;;
34673;SDS011;20879;55.668;37.858;2022-12-13T04:19:18;5.10;;;3.65;;
34673;SDS011;20879;55.668;37.858;2022-12-13T04:21:51;4.73;;;3.67;;
34673;SDS011;20879;55.668;37.858;2022-12-13T04:24:22;4.93;;;3.75;;
34673;SDS011;20879;55.668;37.858;2022-12-13T04:26:59;4.88;;;3.65;;
34673;SDS011;20879;55.668;37.858;2022-12-13T04:29:29;4.60;;;3.72;;
34673;SDS011;20879;55.668;37.858;2022-12-13T04:32:00;4.13;;;3.72;;
34673;SDS011;20879;55.668;37.858;2022-12-13T04:34:30;4.60;;;4.10;;
34673;SDS011;20879;55.668;37.858;2022-12-13T04:37:05;4.43;;;3.70;;
34673;SDS011;20879;55.668;37.858;2022-12-13T04:39:39;4.07;;;3.67;;
34673;SDS011;20879;55.668;37.858;2022-12-13T04:42:14;4.47;;;3.85;;
34673;SDS011;20879;55.668;37.858;2022-12-13T04:44:43;4.70;;;3.72;;
34673;SDS011;20879;55.668;37.858;2022-12-13T04:47:12;4.97;;;3.83;;
34673;SDS011;20879;55.668;37.858;2022-12-13T04:49:51;5.25;;;3.80;;
34673;SDS011;20879;55.668;37.858;2022-12-13T04:52:22;4.80;;;3.78;;
34673;SDS011;20879;55.668;37.858;2022-12-13T04:54:52;5.35;;;4.20;;
34673;SDS011;20879;55.668;37.858;2022-12-13T04:57:26;5.35;;;4.57;;
34673;SDS011;20879;55.668;37.858;2022-12-13T05:00:00;4.85;;;4.10;;
34673;SDS011;20879;55.668;37.858;2022-12-13T05:02:40;5.55;;;4.15;;
34673;SDS011;20879;55.668;37.858;2022-12-13T05:05:09;5.15;;;4.38;;
34673;SDS011;20879;55.668;37.858;2022-12-13T05:07:43;4.13;;;3.65;;
34673;SDS011;20879;55.668;37.858;2022-12-13T05:10:13;5.38;;;4.38;;
34673;SDS011;20879;55.668;37.858;2022-12-13T05:13:03;5.57;;;4.55;;
34673;SDS011;20879;55.668;37.858;2022-12-13T05:15:32;4.97;;;3.90;;
34673;SDS011;20879;55.668;37.858;2022-12-13T05:18:07;4.85;;;4.15;;
34673;SDS011;20879;55.668;37.858;2022-12-13T05:20:37;5.78;;;4.45;;
34673;SDS011;20879;55.668;37.858;2022-12-13T05:23:09;5.00;;;3.60;;
34673;SDS011;20879;55.668;37.858;2022-12-13T05:25:48;4.93;;;4.22;;
34673;SDS011;20879;55.668;37.858;2022-12-13T05:28:23;5.03;;;4.38;;
34673;SDS011;20879;55.668;37.858;2022-12-13T05:31:04;5.10;;;4.07;;
34673;SDS011;20879;55.668;37.858;2022-12-13T05:33:49;6.50;;;5.20;;
34673;SDS011;20879;55.668;37.858;2022-12-13T05:36:19;5.85;;;4.38;;
34673;SDS011;20879;55.668;37.858;2022-12-13T05:39:33;5.00;;;4.15;;
34673;SDS011;20879;55.668;37.858;2022-12-13T05:42:03;5.13;;;4.40;;
34673;SDS011;20879;55.668;37.858;2022-12-13T05:44:32;5.75;;;4.78;;
34673;SDS011;20879;55.668;37.858;2022-12-13T05:47:07;5.63;;;4.45;;
34673;SDS011;20879;55.668;37.858;2022-12-13T05:49:37;5.82;;;4.28;;
34673;SDS011;20879;55.668;37.858;2022-12-13T05:52:13;5.05;;;4.38;;
34673;SDS011;20879;55.668;37.858;2022-12-13T05:54:58;5.07;;;4.38;;
34673;SDS011;20879;55.668;37.858;2022-12-13T05:57:33;5.30;;;4.63;;
34673;SDS011;20879;55.668;37.858;2022-12-13T06:00:04;5.13;;;4.63;;
34673;SDS011;20879;55.668;37.858;2022-12-13T06:02:55;5.13;;;4.63;;
34673;SDS011;20879;55.668;37.858;2022-12-13T06:05:27;5.28;;;4.55;;
34673;SDS011;20879;55.668;37.858;2022-12-13T06:07:56;5.75;;;4.55;;
34673;SDS011;20879;55.668;37.858;2022-12-13T06:10:28;5.88;;;4.82;;
34673;SDS011;20879;55.668;37.858;2022-12-13T06:13:01;6.38;;;5.13;;
34673;SDS011;20879;55.668;37.858;2022-12-13T06:15:51;6.03;;;4.85;;
34673;SDS011;20879;55.668;37.858;2022-12-13T06:18:28;5.93;;;4.75;;
34673;SDS011;20879;55.668;37.858;2022-12-13T06:21:13;5.93;;;5.32;;
34673;SDS011;20879;55.668;37.858;2022-12-13T06:23:42;6.60;;;4.93;;
34673;SDS011;20879;55.668;37.858;2022-12-13T06:26:13;5.88;;;5.15;;
34673;SDS011;20879;55.668;37.858;2022-12-13T06:28:42;6.60;;;5.38;;
34673;SDS011;20879;55.668;37.858;2022-12-13T06:31:18;5.32;;;4.63;;
34673;SDS011;20879;55.668;37.858;2022-12-13T06:33:47;6.32;;;5.28;;
34673;SDS011;20879;55.668;37.858;2022-12-13T06:36:22;6.00;;;5.00;;
34673;SDS011;20879;55.668;37.858;2022-12-13T06:38:52;7.15;;;6.00;;
34673;SDS011;20879;55.668;37.858;2022-12-13T06:41:28;6.40;;;5.57;;
34673;SDS011;20879;55.668;37.858;2022-12-13T06:46:26;7.97;;;5.63;;
34673;SDS011;20879;55.668;37.858;2022-12-13T06:48:56;6.53;;;5.55;;
34673;SDS011;20879;55.668;37.858;2022-12-13T06:51:27;6.45;;;5.28;;
34673;SDS011;20879;55.668;37.858;2022-12-13T06:53:59;7.13;;;5.95;;
34673;SDS011;20879;55.668;37.858;2022-12-13T06:56:31;8.20;;;5.93;;
34673;SDS011;20879;55.668;37.858;2022-12-13T06:59:00;8.18;;;5.63;;
34673;SDS011;20879;55.668;37.858;2022-12-13T07:01:29;7.15;;;6.03;;
34673;SDS011;20879;55.668;37.858;2022-12-13T07:04:04;6.10;;;5.50;;
34673;SDS011;20879;55.668;37.858;2022-12-13T07:06:56;6.85;;;5.80;;
34673;SDS011;20879;55.668;37.858;2022-12-13T07:09:28;8.45;;;6.20;;
34673;SDS011;20879;55.668;37.858;2022-12-13T07:11:59;7.13;;;5.88;;
34673;SDS011;20879;55.668;37.858;2022-12-13T07:14:31;6.30;;;5.13;;
34673;SDS011;20879;55.668;37.858;2022-12-13T07:17:07;7.10;;;5.82;;
34673;SDS011;20879;55.668;37.858;2022-12-13T07:19:36;6.35;;;5.05;;
34673;SDS011;20879;55.668;37.858;2022-12-13T07:22:06;6.65;;;5.85;;
34673;SDS011;20879;55.668;37.858;2022-12-13T07:24:35;6.93;;;5.80;;
34673;SDS011;20879;55.668;37.858;2022-12-13T07:27:06;10.15;;;6.13;;
34673;SDS011;20879;55.668;37.858;2022-12-13T07:29:36;6.13;;;5.20;;
34673;SDS011;20879;55.668;37.858;2022-12-13T07:32:05;8.23;;;6.13;;
34673;SDS011;20879;55.668;37.858;2022-12-13T07:34:34;6.65;;;5.78;;
34673;SDS011;20879;55.668;37.858;2022-12-13T07:37:03;7.47;;;5.85;;
34673;SDS011;20879;55.668;37.858;2022-12-13T07:39:45;7.32;;;5.15;;
34673;SDS011;20879;55.668;37.858;2022-12-13T07:42:16;7.68;;;5.80;;
34673;SDS011;20879;55.668;37.858;2022-12-13T07:44:52;6.90;;;5.65;;
34673;SDS011;20879;55.668;37.858;2022-12-13T07:47:22;6.57;;;5.32;;
34673;SDS011;20879;55.668;37.858;2022-12-13T07:49:54;7.00;;;5.03;;
34673;SDS011;20879;55.668;37.858;2022-12-13T07:52:29;8.10;;;5.97;;
34673;SDS011;20879;55.668;37.858;2022-12-13T07:55:01;7.53;;;5.10;;
34673;SDS011;20879;55.668;37.858;2022-12-13T07:57:34;6.25;;;5.35;;
34673;SDS011;20879;55.668;37.858;2022-12-13T08:00:04;7.25;;;5.47;;
34673;SDS011;20879;55.668;37.858;2022-12-13T08:02:38;7.07;;;5.30;;
34673;SDS011;20879;55.668;37.858;2022-12-13T08:05:08;7.13;;;5.35;;
34673;SDS011;20879;55.668;37.858;2022-12-13T08:07:52;8.13;;;5.30;;
34673;SDS011;20879;55.668;37.858;2022-12-13T08:10:21;6.45;;;4.65;;
34673;SDS011;20879;55.668;37.858;2022-12-13T08:12:53;7.03;;;4.57;;
34673;SDS011;20879;55.668;37.858;2022-12-13T08:15:22;8.88;;;4.97;;
34673;SDS011;20879;55.668;37.858;2022-12-13T08:17:54;6.70;;;5.20;;
34673;SDS011;20879;55.668;37.858;2022-12-13T08:20:26;6.57;;;4.90;;
34673;SDS011;20879;55.668;37.858;2022-12-13T08:22:56;7.00;;;5.13;;
34673;SDS011;20879;55.668;37.858;2022-12-13T08:25:31;6.53;;;4.65;;
34673;SDS011;20879;55.668;37.858;2022-12-13T08:28:05;6.72;;;4.78;;
34673;SDS011;20879;55.668;37.858;2022-12-13T08:30:34;5.88;;;4.60;;
34673;SDS011;20879;55.668;37.858;2022-12-13T08:33:03;5.97;;;4.90;;
34673;SDS011;20879;55.668;37.858;2022-12-13T08:35:32;11.27;;;5.40;;
34673;SDS011;20879;55.668;37.858;2022-12-13T08:38:02;5.75;;;4.45;;
34673;SDS011;20879;55.668;37.858;2022-12-13T08:40:31;5.80;;;4.55;;
34673;SDS011;20879;55.668;37.858;2022-12-13T08:43:00;5.95;;;4.80;;
34673;SDS011;20879;55.668;37.858;2022-12-13T08:45:32;6.10;;;4.45;;
34673;SDS011;20879;55.668;37.858;2022-12-13T08:48:01;7.25;;;4.80;;
34673;SDS011;20879;55.668;37.858;2022-12-13T08:50:31;5.60;;;4.97;;
34673;SDS011;20879;55.668;37.858;2022-12-13T08:53:00;7.20;;;4.45;;
34673;SDS011;20879;55.668;37.858;2022-12-13T08:55:29;6.13;;;4.40;;
34673;SDS011;20879;55.668;37.858;2022-12-13T08:57:58;6.65;;;4.45;;
34673;SDS011;20879;55.668;37.858;2022-12-13T09:00:37;6.75;;;5.10;;
34673;SDS011;20879;55.668;37.858;2022-12-13T09:03:08;5.75;;;4.70;;
34673;SDS011;20879;55.668;37.858;2022-12-13T09:05:37;5.00;;;4.45;;
34673;SDS011;20879;55.668;37.858;2022-12-13T09:08:12;4.97;;;4.18;;
34673;SDS011;20879;55.668;37.858;2022-12-13T09:10:57;9.48;;;5.93;;
34673;SDS011;20879;55.668;37.858;2022-12-13T09:13:37;8.38;;;5.65;;
34673;SDS011;20879;55.668;37.858;2022-12-13T09:16:14;7.55;;;4.82;;
34673;SDS011;20879;55.668;37.858;2022-12-13T09:21:52;6.43;;;4.63;;
34673;SDS011;20879;55.668;37.858;2022-12-13T09:24:28;7.18;;;4.38;;
34673;SDS011;20879;55.668;37.858;2022-12-13T09:27:06;8.98;;;4.35;;
34673;SDS011;20879;55.668;37.858;2022-12-13T09:29:53;7.28;;;4.57;;
34673;SDS011;20879;55.668;37.858;2022-12-13T09:32:24;6.57;;;4.57;;
34673;SDS011;20879;55.668;37.858;2022-12-13T09:34:54;5.45;;;4.00;;
34673;SDS011;20879;55.668;37.858;2022-12-13T09:37:24;5.90;;;4.43;;
34673;SDS011;20879;55.668;37.858;2022-12-13T09:39:53;5.00;;;3.97;;
34673;SDS011;20879;55.668;37.858;2022-12-13T09:42:22;5.28;;;4.20;;
34673;SDS011;20879;55.668;37.858;2022-12-13T09:44:57;6.78;;;4.50;;
34673;SDS011;20879;55.668;37.858;2022-12-13T09:47:46;4.75;;;3.90;;
34673;SDS011;20879;55.668;37.858;2022-12-13T09:50:17;7.60;;;4.40;;
34673;SDS011;20879;55.668;37.858;2022-12-13T09:52:51;5.05;;;3.70;;
34673;SDS011;20879;55.668;37.858;2022-12-13T09:55:33;4.47;;;3.55;;
34673;SDS011;20879;55.668;37.858;2022-12-13T09:58:07;5.20;;;4.07;;
34673;SDS011;20879;55.668;37.858;2022-12-13T10:00:41;5.03;;;3.70;;
34673;SDS011;20879;55.668;37.858;2022-12-13T10:03:14;7.38;;;4.00;;
34673;SDS011;20879;55.668;37.858;2022-12-13T10:05:49;4.03;;;3.25;;
34673;SDS011;20879;55.668;37.858;2022-12-13T10:08:24;4.30;;;3.38;;
34673;SDS011;20879;55.668;37.858;2022-12-13T10:10:56;3.88;;;3.08;;
34673;SDS011;20879;55.668;37.858;2022-12-13T10:13:26;4.45;;;3.10;;
34673;SDS011;20879;55.668;37.858;2022-12-13T10:16:07;4.43;;;3.33;;
34673;SDS011;20879;55.668;37.858;2022-12-13T10:18:51;6.38;;;4.40;;
34673;SDS011;20879;55.668;37.858;2022-12-13T10:21:24;4.55;;;3.20;;
34673;SDS011;20879;55.668;37.858;2022-12-13T10:24:06;5.93;;;3.70;;
34673;SDS011;20879;55.668;37.858;2022-12-13T10:27:08;3.85;;;3.20;;
34673;SDS011;20879;55.668;37.858;2022-12-13T10:32:32;6.30;;;3.85;;
34673;SDS011;20879;55.668;37.858;2022-12-13T10:35:21;5.63;;;3.70;;
34673;SDS011;20879;55.668;37.858;2022-12-13T10:37:53;7.93;;;4.18;;
34673;SDS011;20879;55.668;37.858;2022-12-13T10:40:33;5.50;;;3.80;;
34673;SDS011;20879;55.668;37.858;2022-12-13T10:43:11;5.80;;;4.03;;
34673;SDS011;20879;55.668;37.858;2022-12-13T10:45:55;6.95;;;4.35;;
34673;SDS011;20879;55.668;37.858;2022-12-13T10:48:30;8.90;;;5.20;;
34673;SDS011;20879;55.668;37.858;2022-12-13T10:51:06;11.93;;;6.25;;
34673;SDS011;20879;55.668;37.858;2022-12-13T10:53:44;12.57;;;6.78;;
34673;SDS011;20879;55.668;37.858;2022-12-13T10:56:15;15.35;;;8.68;;
34673;SDS011;20879;55.668;37.858;2022-12-13T10:58:51;16.27;;;9.35;;
34673;SDS011;20879;55.668;37.858;2022-12-13T11:01:43;18.50;;;10.40;;
34673;SDS011;20879;55.668;37.858;2022-12-13T11:04:19;20.27;;;10.55;;
34673;SDS011;20879;55.668;37.858;2022-12-13T11:06:56;17.50;;;11.02;;
34673;SDS011;20879;55.668;37.858;2022-12-13T11:09:28;17.52;;;10.38;;
34673;SDS011;20879;55.668;37.858;2022-12-13T11:12:10;19.27;;;10.25;;
34673;SDS011;20879;55.668;37.858;2022-12-13T11:14:47;14.45;;;7.40;;
34673;SDS011;20879;55.668;37.858;2022-12-13T11:17:21;13.68;;;8.10;;
34673;SDS011;20879;55.668;37.858;2022-12-13T11:19:53;9.43;;;5.80;;
34673;SDS011;20879;55.668;37.858;2022-12-13T11:22:28;11.65;;;6.03;;
34673;SDS011;20879;55.668;37.858;2022-12-13T11:25:00;10.90;;;5.68;;
34673;SDS011;20879;55.668;37.858;2022-12-13T11:27:37;11.02;;;6.10;;
34673;SDS011;20879;55.668;37.858;2022-12-13T11:30:20;7.18;;;4.68;;
34673;SDS011;20879;55.668;37.858;2022-12-13T11:33:06;4.95;;;4.00;;
34673;SDS011;20879;55.668;37.858;2022-12-13T11:35:53;7.32;;;3.30;;
34673;SDS011;20879;55.668;37.858;2022-12-13T11:38:42;5.03;;;2.63;;
34673;SDS011;20879;55.668;37.858;2022-12-13T11:41:25;6.65;;;3.25;;
34673;SDS011;20879;55.668;37.858;2022-12-13T11:43:59;5.35;;;3.15;;
34673;SDS011;20879;55.668;37.858;2022-12-13T11:46:37;7.72;;;3.10;;
34673;SDS011;20879;55.668;37.858;2022-12-13T11:49:10;5.70;;;3.42;;
34673;SDS011;20879;55.668;37.858;2022-12-13T11:51:45;6.35;;;3.00;;
34673;SDS011;20879;55.668;37.858;2022-12-13T11:54:27;6.47;;;3.40;;
34673;SDS011;20879;55.668;37.858;2022-12-13T11:57:08;7.20;;;3.50;;
34673;SDS011;20879;55.668;37.858;2022-12-13T11:59:46;7.85;;;3.35;;
34673;SDS011;20879;55.668;37.858;2022-12-13T12:02:41;6.75;;;3.58;;
34673;SDS011;20879;55.668;37.858;2022-12-13T12:05:21;6.95;;;3.80;;
34673;SDS011;20879;55.668;37.858;2022-12-13T12:07:57;6.30;;;3.75;;
34673;SDS011;20879;55.668;37.858;2022-12-13T12:10:55;8.68;;;4.30;;
34673;SDS011;20879;55.668;37.858;2022-12-13T12:13:38;7.00;;;4.30;;
34673;SDS011;20879;55.668;37.858;2022-12-13T12:16:19;6.53;;;4.70;;
34673;SDS011;20879;55.668;37.858;2022-12-13T12:19:01;8.57;;;4.38;;
34673;SDS011;20879;55.668;37.858;2022-12-13T12:21:34;7.65;;;4.78;;
34673;SDS011;20879;55.668;37.858;2022-12-13T12:24:32;5.25;;;4.25;;
34673;SDS011;20879;55.668;37.858;2022-12-13T12:27:16;8.25;;;5.03;;
34673;SDS011;20879;55.668;37.858;2022-12-13T12:30:07;9.13;;;4.95;;
34673;SDS011;20879;55.668;37.858;2022-12-13T12:32:50;8.07;;;4.63;;
34673;SDS011;20879;55.668;37.858;2022-12-13T12:35:43;13.00;;;5.40;;
34673;SDS011;20879;55.668;37.858;2022-12-13T12:38:29;8.40;;;4.85;;
34673;SDS011;20879;55.668;37.858;2022-12-13T12:41:25;10.60;;;5.30;;
34673;SDS011;20879;55.668;37.858;2022-12-13T12:44:28;7.85;;;5.22;;
34673;SDS011;20879;55.668;37.858;2022-12-13T12:47:13;9.50;;;5.50;;
34673;SDS011;20879;55.668;37.858;2022-12-13T12:54:53;9.50;;;5.80;;
34673;SDS011;20879;55.668;37.858;2022-12-13T13:00:08;9.60;;;5.72;;
34673;SDS011;20879;55.668;37.858;2022-12-13T13:02:46;11.52;;;6.32;;
34673;SDS011;20879;55.668;37.858;2022-12-13T13:07:59;9.77;;;5.90;;
34673;SDS011;20879;55.668;37.858;2022-12-13T13:10:35;9.35;;;5.53;;
34673;SDS011;20879;55.668;37.858;2022-12-13T13:13:31;10.15;;;6.10;;
34673;SDS011;20879;55.668;37.858;2022-12-13T13:16:28;6.63;;;4.82;;
34673;SDS011;20879;55.668;37.858;2022-12-13T13:19:01;9.60;;;5.57;;
34673;SDS011;20879;55.668;37.858;2022-12-13T13:21:41;9.20;;;5.95;;
34673;SDS011;20879;55.668;37.858;2022-12-13T13:24:16;8.95;;;5.63;;
34673;SDS011;20879;55.668;37.858;2022-12-13T13:26:52;10.15;;;5.93;;
34673;SDS011;20879;55.668;37.858;2022-12-13T13:29:30;10.60;;;5.80;;
34673;SDS011;20879;55.668;37.858;2022-12-13T13:32:03;10.57;;;5.57;;
34673;SDS011;20879;55.668;37.858;2022-12-13T13:37:55;10.40;;;6.25;;
34673;SDS011;20879;55.668;37.858;2022-12-13T13:40:26;10.40;;;6.38;;
34673;SDS011;20879;55.668;37.858;2022-12-13T13:43:05;7.82;;;5.55;;
34673;SDS011;20879;55.668;37.858;2022-12-13T13:45:55;8.48;;;5.78;;
34673;SDS011;20879;55.668;37.858;2022-12-13T13:48:36;8.82;;;5.90;;
34673;SDS011;20879;55.668;37.858;2022-12-13T13:58:07;8.43;;;5.40;;
34673;SDS011;20879;55.668;37.858;2022-12-13T14:01:09;8.73;;;5.13;;
34673;SDS011;20879;55.668;37.858;2022-12-13T14:07:16;10.57;;;5.82;;
34673;SDS011;20879;55.668;37.858;2022-12-13T14:10:21;9.10;;;5.90;;
34673;SDS011;20879;55.668;37.858;2022-12-13T14:13:16;10.30;;;6.28;;
34673;SDS011;20879;55.668;37.858;2022-12-13T14:22:01;13.43;;;6.88;;
34673;SDS011;20879;55.668;37.858;2022-12-13T14:24:45;12.07;;;6.53;;
34673;SDS011;20879;55.668;37.858;2022-12-13T14:27:25;11.13;;;7.00;;
34673;SDS011;20879;55.668;37.858;2022-12-13T14:30:09;10.98;;;7.25;;
34673;SDS011;20879;55.668;37.858;2022-12-13T14:32:54;10.55;;;6.57;;
34673;SDS011;20879;55.668;37.858;2022-12-13T14:35:25;10.30;;;6.97;;
34673;SDS011;20879;55.668;37.858;2022-12-13T14:37:59;12.50;;;7.18;;
34673;SDS011;20879;55.668;37.858;2022-12-13T14:40:30;12.18;;;6.72;;
34673;SDS011;20879;55.668;37.858;2022-12-13T14:43:01;17.27;;;10.00;;
34673;SDS011;20879;55.668;37.858;2022-12-13T14:45:33;15.25;;;9.05;;
34673;SDS011;20879;55.668;37.858;2022-12-13T14:48:05;15.63;;;8.13;;
34673;SDS011;20879;55.668;37.858;2022-12-13T14:50:59;13.82;;;7.55;;
34673;SDS011;20879;55.668;37.858;2022-12-13T14:53:28;13.68;;;7.80;;
34673;SDS011;20879;55.668;37.858;2022-12-13T14:56:27;13.63;;;7.32;;
34673;SDS011;20879;55.668;37.858;2022-12-13T14:58:57;18.13;;;8.00;;
34673;SDS011;20879;55.668;37.858;2022-12-13T15:01:35;18.00;;;7.80;;
34673;SDS011;20879;55.668;37.858;2022-12-13T15:04:16;12.55;;;8.18;;
34673;SDS011;20879;55.668;37.858;2022-12-13T15:07:00;17.55;;;9.38;;
34673;SDS011;20879;55.668;37.858;2022-12-13T15:09:38;12.95;;;8.13;;
34673;SDS011;20879;55.668;37.858;2022-12-13T15:14:55;10.23;;;6.57;;
34673;SDS011;20879;55.668;37.858;2022-12-13T15:17:32;10.35;;;6.63;;
34673;SDS011;20879;55.668;37.858;2022-12-13T15:23:12;9.70;;;6.22;;
34673;SDS011;20879;55.668;37.858;2022-12-13T15:26:07;11.40;;;7.07;;
34673;SDS011;20879;55.668;37.858;2022-12-13T15:28:55;11.65;;;6.80;;
34673;SDS011;20879;55.668;37.858;2022-12-13T15:31:32;11.85;;;7.63;;
34673;SDS011;20879;55.668;37.858;2022-12-13T15:37:00;11.63;;;7.78;;
34673;SDS011;20879;55.668;37.858;2022-12-13T15:39:34;12.30;;;7.45;;
34673;SDS011;20879;55.668;37.858;2022-12-13T15:42:11;12.23;;;7.82;;
34673;SDS011;20879;55.668;37.858;2022-12-13T15:44:46;12.30;;;8.00;;
34673;SDS011;20879;55.668;37.858;2022-12-13T15:47:19;12.15;;;7.50;;
34673;SDS011;20879;55.668;37.858;2022-12-13T15:49:58;10.02;;;7.18;;
34673;SDS011;20879;55.668;37.858;2022-12-13T15:52:32;11.23;;;7.35;;
34673;SDS011;20879;55.668;37.858;2022-12-13T16:00:31;11.45;;;8.73;;
34673;SDS011;20879;55.668;37.858;2022-12-13T16:03:04;11.55;;;7.55;;
34673;SDS011;20879;55.668;37.858;2022-12-13T16:05:39;13.55;;;7.85;;
34673;SDS011;20879;55.668;37.858;2022-12-13T16:08:23;13.45;;;8.68;;
34673;SDS011;20879;55.668;37.858;2022-12-13T16:10:55;12.65;;;8.63;;
34673;SDS011;20879;55.668;37.858;2022-12-13T16:13:26;11.90;;;7.45;;
34673;SDS011;20879;55.668;37.858;2022-12-13T16:15:57;11.70;;;7.25;;
34673;SDS011;20879;55.668;37.858;2022-12-13T16:18:42;16.00;;;8.75;;
34673;SDS011;20879;55.668;37.858;2022-12-13T16:21:20;17.45;;;8.63;;
34673;SDS011;20879;55.668;37.858;2022-12-13T16:23:50;13.45;;;8.20;;
34673;SDS011;20879;55.668;37.858;2022-12-13T16:26:20;11.70;;;7.82;;
34673;SDS011;20879;55.668;37.858;2022-12-13T16:28:52;10.82;;;7.22;;
34673;SDS011;20879;55.668;37.858;2022-12-13T16:31:28;11.15;;;7.45;;
34673;SDS011;20879;55.668;37.858;2022-12-13T16:34:01;10.75;;;7.13;;